Have a Safe July 4th! 

Flight Track Log - Related Links

Times and Time Zones

All times are in EDT time to prevent confusion due to time zone crossing. See the AWE1474 flight status page for this flight to view local times or setup timezone preferences in your user account.

Time Position Orientation Groundspeed Altitude Reporting Facility
EDT Latitude Longitude Course Direction KTS MPH feet Rate Location/Type
Sat 12:06:15 PM 28.4581 -81.3081 167° South  Level FlightAware Approximate
Sat 12:07:10 PM 28.3667 -81.2833 150° Southeast 201 231 1,900  Level Orlando TRACON
Sat 12:08:16 PM 28.3167 -81.2500 106° East 223 257 5,700 2,762 Climbing Orlando TRACON
Sat 12:09:16 PM 28.3000 -81.1833 North 272 313 7,700 2,153 Climbing Orlando TRACON
Sat 12:11:45 PM 28.4933 -81.1800 345° North 291 335 13,200 2,354 Climbing Jacksonville Center
Sat 12:12:45 PM 28.5958 -81.2114 342° North 344 396 15,900 2,400 Climbing Jacksonville Center
Sat 12:13:45 PM 28.7008 -81.2500 343° North 367 422 18,000 2,083 Climbing Jacksonville Center
Sat 12:14:46 PM 28.8097 -81.2883 343° North 387 445 20,100 1,900 Climbing Jacksonville Center
Sat 12:15:45 PM 28.9250 -81.3292 343° North 406 467 21,800 1,815 Climbing Jacksonville Center
Sat 12:16:45 PM 29.0425 -81.3703 348° North 430 495 23,700 1,700 Climbing Jacksonville Center
Sat 12:17:45 PM 29.1658 -81.3992 355° North 436 502 25,200 1,450 Climbing Jacksonville Center
Sat 12:18:45 PM 29.2933 -81.4117 355° North 448 516 26,600 1,550 Climbing Jacksonville Center
Sat 12:19:45 PM 29.4208 -81.4239 355° North 460 529 28,300 1,686 Climbing Jacksonville Center
Sat 12:20:46 PM 29.5483 -81.4364 355° North 460 529 30,000 1,537 Climbing Jacksonville Center
Sat 12:21:46 PM 29.6781 -81.4489 355° North 465 535 31,400 1,450 Climbing Jacksonville Center
Sat 12:22:46 PM 29.8033 -81.4611 356° North 460 529 32,900 800 Climbing Jacksonville Center
Sat 12:23:46 PM 29.9286 -81.4714 357° North 450 518 33,000 50 Climbing Jacksonville Center
Sat 12:24:46 PM 30.0519 -81.4792 North 444 511 33,000  Level Jacksonville Center
Sat 12:25:46 PM 30.1772 -81.4750 North 444 511 33,000  Level Jacksonville Center
Sat 12:26:46 PM 30.3025 -81.4683 North 444 511 33,000  Level Jacksonville Center
Sat 12:27:46 PM 30.4278 -81.4664 North 444 511 33,000  Level Jacksonville Center
Sat 12:28:46 PM 30.5425 -81.4597 North 444 511 33,000  Level Jacksonville Center
Sat 12:29:46 PM 30.6678 -81.4556 North 444 511 33,000  Level Jacksonville Center
Sat 12:30:46 PM 30.7908 -81.4514 North 444 511 33,000  Level Jacksonville Center
Sat 12:31:46 PM 30.9161 -81.4469 North 444 511 33,000  Level Jacksonville Center
Sat 12:32:46 PM 31.0411 -81.4353 22° Northeast 444 511 33,000  Level Jacksonville Center
Sat 12:33:46 PM 31.1575 -81.3800 31° Northeast 444 511 33,000  Level Jacksonville Center
Sat 12:34:46 PM 31.2650 -81.3031 29° Northeast 444 511 33,000  Level Jacksonville Center
Sat 12:35:46 PM 31.3747 -81.2306 29° Northeast 439 505 33,000  Level Jacksonville Center
Sat 12:36:46 PM 31.4989 -81.1503 30° Northeast 453 521 33,000  Level Jacksonville Center
Sat 12:37:46 PM 31.5983 -81.0828 29° Northeast 458 527 33,000  Level Jacksonville Center
Sat 12:38:46 PM 31.7222 -81.0022 29° Northeast 458 527 33,000  Level Jacksonville Center
Sat 12:39:45 PM 31.8361 -80.9289 30° Northeast 458 527 33,000  Level Jacksonville Center
Sat 12:40:45 PM 31.9394 -80.8581 29° Northeast 458 527 33,000  Level Jacksonville Center
Sat 12:41:45 PM 32.0633 -80.7769 30° Northeast 458 527 33,000  Level Jacksonville Center
Sat 12:42:45 PM 32.1789 -80.6983 30° Northeast 464 534 33,000  Level Jacksonville Center
Sat 12:43:45 PM 32.2922 -80.6217 30° Northeast 464 534 33,000  Level Jacksonville Center
Sat 12:44:46 PM 32.4058 -80.5453 29° Northeast 459 528 33,000  Level Jacksonville Center
Sat 12:45:45 PM 32.5211 -80.4683 30° Northeast 465 535 33,000  Level Jacksonville Center
Sat 12:47:46 PM 32.7436 -80.3167 30° Northeast 458 527 33,000  Level Jacksonville Center
Sat 12:48:45 PM 32.8569 -80.2392 29° Northeast 458 527 33,000  Level Jacksonville Center
Sat 12:49:45 PM 32.9742 -80.1614 31° Northeast 458 527 33,000  Level Jacksonville Center
Sat 12:50:46 PM 33.0872 -80.0811 29° Northeast 466 536 33,000  Level Jacksonville Center
Sat 12:51:45 PM 33.1900 -80.0133 30° Northeast 476 548 33,000  Level Jacksonville Center
Sat 12:52:45 PM 33.3031 -79.9350 30° Northeast 470 541 33,000  Level Jacksonville Center
Sat 12:53:46 PM 33.4139 -79.8592 30° Northeast 465 535 33,000  Level Jacksonville Center
Sat 12:54:45 PM 33.5289 -79.7806 30° Northeast 465 535 33,000  Level Jacksonville Center
Sat 12:55:46 PM 33.6417 -79.7019 30° Northeast 465 535 33,000  Level Jacksonville Center
Sat 12:56:46 PM 33.7544 -79.6228 30° Northeast 465 535 33,000  Level Jacksonville Center
Sat 12:57:45 PM 33.8669 -79.5436 30° Northeast 460 529 33,000  Level Jacksonville Center
Sat 12:58:46 PM 33.9797 -79.4642 29° Northeast 460 529 33,000  Level Jacksonville Center
Sat 01:00:22 PM 34.1544 -79.3486 32° Northeast 448 516 33,000  Level Washington Center
Sat 01:01:22 PM 34.2658 -79.2633 25° Northeast 460 529 33,000  Level Washington Center
Sat 01:02:23 PM 34.3931 -79.1908 26° Northeast 460 529 33,000  Level Washington Center
Sat 01:03:21 PM 34.5078 -79.1228 25° Northeast 460 529 33,000  Level Washington Center
Sat 01:04:22 PM 34.6267 -79.0547 25° Northeast 455 524 33,000  Level Washington Center
Sat 01:05:23 PM 34.7433 -78.9889 26° Northeast 455 524 33,000  Level Washington Center
Sat 01:06:23 PM 34.8600 -78.9206 26° Northeast 455 524 33,000  Level Washington Center
Sat 01:07:21 PM 34.9767 -78.8517 25° Northeast 461 531 33,000  Level Washington Center
Sat 01:08:22 PM 35.0953 -78.7828 26° Northeast 461 531 33,000  Level Washington Center
Sat 01:09:23 PM 35.2119 -78.7139 26° Northeast 461 531 33,000  Level Washington Center
Sat 01:10:23 PM 35.3264 -78.6469 25° Northeast 461 531 33,000  Level Washington Center
Sat 01:11:21 PM 35.4364 -78.5850 26° Northeast 469 540 33,000  Level Washington Center
Sat 01:12:21 PM 35.5614 -78.5103 26° Northeast 462 532 33,000  Level Washington Center
Sat 01:13:22 PM 35.6778 -78.4406 37° Northeast 457 526 33,000  Level Washington Center
Sat 01:14:23 PM 35.7781 -78.3469 42° Northeast 450 518 33,000 -151 Level Washington Center
Sat 01:15:21 PM 35.8722 -78.2425 42° Northeast 450 518 32,700 -661 Descending Washington Center
Sat 01:16:21 PM 35.9664 -78.1378 43° Northeast 450 518 31,700 -1,041 Descending Washington Center
Sat 01:17:22 PM 36.0603 -78.0303 43° Northeast 450 518 30,600 -1,587 Descending Washington Center
Sat 01:18:22 PM 36.1458 -77.9328 42° Northeast 465 535 28,500 -1,785 Descending Washington Center
Sat 01:19:23 PM 36.2439 -77.8222 32° Northeast 470 541 27,000 -756 Descending Washington Center
Sat 01:20:21 PM 36.3539 -77.7353 23° Northeast 465 535 27,000  Level Washington Center
Sat 01:21:22 PM 36.4656 -77.6761 16° North 437 503 27,000  Level Washington Center
Sat 01:22:23 PM 36.5872 -77.6328 14° North 442 509 27,000  Level Washington Center
Sat 01:23:23 PM 36.7131 -77.5922 16° North 448 516 27,000  Level Washington Center
Sat 01:24:21 PM 36.8350 -77.5486 15° North 453 521 27,000  Level Washington Center
Sat 01:25:22 PM 36.9567 -77.5075 15° North 453 521 27,000  Level Washington Center
Sat 01:26:23 PM 37.0822 -77.4664 16° North 458 527 27,000  Level Washington Center
Sat 01:27:21 PM 37.2061 -77.4225 14° North 458 527 27,000  Level Washington Center
Sat 01:28:22 PM 37.3278 -77.3836 16° North 453 521 27,000  Level Washington Center
Sat 01:29:22 PM 37.4556 -77.3369 12° North 458 527 27,000 -49 Level Washington Center
Sat 01:30:24 PM 37.5917 -77.3006 10° North 458 527 26,900 -1,513 Descending Washington Center
Sat 01:31:21 PM 37.7150 -77.2744 North 453 521 24,000 -2,513 Descending Washington Center
Sat 01:32:21 PM 37.8322 -77.2508 North 438 504 22,000 -992 Descending Washington Center
Sat 01:33:22 PM 37.9431 -77.2294 316° Northwest 416 479 22,000 -496 Level Washington Center
Sat 01:34:22 PM 37.9944 -77.2914 196° South 271 312 21,000 -545 Descending Washington Center
Sat 01:35:23 PM 37.9147 -77.3211 110° East 140 161 20,900 -1,160 Descending Washington Center
Sat 01:36:21 PM 37.8808 -77.2044 27° Northeast 174 200 18,700 -2,168 Descending Washington Center
Sat 01:37:22 PM 37.9586 -77.1536 359° North 185 213 16,600 -2,803 Descending Washington Center
Sat 01:38:23 PM 38.0525 -77.1556 360° North 237 273 13,000 -2,876 Descending Washington Center
Sat 01:39:23 PM 38.1525 -77.1550 360° North 301 346 10,800 -1,525 Descending Washington Center
Sat 01:40:21 PM 38.2444 -77.1542 16° North 320 368 10,000 -454 Descending Washington Center
Sat 01:41:22 PM 38.3408 -77.1192 48° Northeast 317 365 9,900 -446 Descending Washington Center
Sat 01:42:22 PM 38.3981 -77.0383 11° North 305 351 9,100 -1,150 Descending Washington Center
Sat 01:43:22 PM 38.4669 -77.0208 357° North 272 313 7,600 -1,289 Descending Washington Center
Sat 01:44:23 PM 38.5336 -77.0250 338° Northwest 243 280 6,500 -1,140 Descending Washington Center
Sat 01:45:23 PM 38.5856 -77.0525 North 204 235 5,300 -1,206 Descending Washington Center
Sat 01:47:32 PM 38.6833 -77.0333 360° North 176 203 2,700 -1,043 Descending Potomac TRACON
Sat 01:48:27 PM 38.7333 -77.0333 360° North 162 186 2,100 -574 Descending Potomac TRACON
Sat 01:49:27 PM 38.7667 -77.0333 360° North 155 178 1,600 -500 Descending Potomac TRACON

Login

Don't have an account? Register now (free) for customized features, flight alerts, and more!